Time;durP1;ratioP1;P1;durP2;ratioP2;P2;SDS_P1;SDS_P2;PMS_P1;PMS_P2;Temp;Humidity;BMP_temperature;BMP_pressure;BME280_temperature;BME280_humidity;BME280_pressure;Samples;Min_cycle;Max_cycle;Signal;HPM_P1;HPM_P2
2021/07/26 00:00:58;;;;;;;21.90;14.60;;;;;;;;;;6315372;22;20031;-84
2021/07/26 00:03:51;;;;;;;24.23;14.98;;;;;;;;;;6315272;22;20025;-85
2021/07/26 00:06:20;;;;;;;22.02;14.73;;;;;;;;;;6317012;22;20019;-85
2021/07/26 00:08:47;;;;;;;23.50;13.93;;;;;;;;;;6317754;22;20027;-85
2021/07/26 00:11:16;;;;;;;18.08;14.43;;;;;;;;;;6314952;22;20034;-86
2021/07/26 00:13:45;;;;;;;22.52;14.27;;;;;;;;;;6314821;22;20053;-85
2021/07/26 00:16:12;;;;;;;23.55;14.63;;;;;;;;;;6315355;22;20023;-85
2021/07/26 00:18:48;;;;;;;23.20;14.38;;;;;;;;;;6313982;22;20135;-86
2021/07/26 00:21:15;;;;;;;26.90;14.30;;;;;;;;;;6314070;22;20027;-85
2021/07/26 00:23:42;;;;;;;22.55;14.70;;;;;;;;;;6314289;22;20068;-84
2021/07/26 00:26:09;;;;;;;26.27;13.82;;;;;;;;;;6314924;22;20023;-85
2021/07/26 00:28:36;;;;;;;26.80;14.60;;;;;;;;;;6313524;22;20440;-85
2021/07/26 00:31:03;;;;;;;20.95;14.38;;;;;;;;;;6330194;22;20019;-85
2021/07/26 00:36:27;;;;;;;20.15;14.13;;;;;;;;;;6348057;22;20308;-85
2021/07/26 00:38:53;;;;;;;23.63;14.20;;;;;;;;;;6320063;22;20022;-85
2021/07/26 00:41:22;;;;;;;18.38;14.60;;;;;;;;;;6318897;22;20114;-85
2021/07/26 00:43:49;;;;;;;21.00;14.80;;;;;;;;;;6344396;22;20109;-85
2021/07/26 00:46:16;;;;;;;21.25;14.95;;;;;;;;;;6345032;22;20033;-85
2021/07/26 00:48:43;;;;;;;17.27;13.75;;;;;;;;;;6344094;22;20027;-85
2021/07/26 00:51:17;;;;;;;21.70;13.93;;;;;;;;;;6346267;22;20019;-85
2021/07/26 00:53:45;;;;;;;19.27;14.13;;;;;;;;;;6346268;22;20021;-85
2021/07/26 00:56:13;;;;;;;19.70;13.68;;;;;;;;;;6320495;22;20023;-85
2021/07/26 00:58:40;;;;;;;22.05;15.10;;;;;;;;;;6318279;22;20014;-85
2021/07/26 01:01:09;;;;;;;18.25;14.25;;;;;;;;;;6292525;22;20019;-84
2021/07/26 01:03:36;;;;;;;19.63;13.05;;;;;;;;;;6318290;22;20076;-85
2021/07/26 01:06:03;;;;;;;19.30;13.70;;;;;;;;;;6319591;22;20029;-85
2021/07/26 01:08:30;;;;;;;18.30;13.52;;;;;;;;;;6318558;22;20023;-85
2021/07/26 01:10:57;;;;;;;18.67;13.70;;;;;;;;;;6346827;22;20022;-85
2021/07/26 01:13:34;;;;;;;20.05;13.48;;;;;;;;;;6318621;22;20087;-85
2021/07/26 01:16:03;;;;;;;21.83;14.77;;;;;;;;;;6320514;22;20098;-85
2021/07/26 01:18:34;;;;;;;32.35;14.68;;;;;;;;;;6321680;22;20086;-85
2021/07/26 01:21:02;;;;;;;23.52;15.20;;;;;;;;;;6338006;22;20030;-84
2021/07/26 01:23:30;;;;;;;23.35;13.93;;;;;;;;;;6332050;22;20022;-85
2021/07/26 01:25:57;;;;;;;20.80;13.50;;;;;;;;;;6349079;22;20023;-84
2021/07/26 01:28:29;;;;;;;19.48;13.80;;;;;;;;;;6324098;22;20021;-85
2021/07/26 01:30:56;;;;;;;19.55;13.52;;;;;;;;;;6363071;22;20023;-84
2021/07/26 01:33:23;;;;;;;20.38;14.20;;;;;;;;;;6349879;22;20045;-85
2021/07/26 01:35:51;;;;;;;21.30;14.23;;;;;;;;;;6321343;22;20049;-85
2021/07/26 01:38:20;;;;;;;18.15;13.20;;;;;;;;;;6322109;22;20027;-85
2021/07/26 01:40:53;;;;;;;22.33;13.48;;;;;;;;;;6319222;22;20023;-85
2021/07/26 01:43:20;;;;;;;20.42;14.18;;;;;;;;;;6318564;22;20038;-85
2021/07/26 01:46:05;;;;;;;18.25;13.93;;;;;;;;;;6347124;22;20469;-85
2021/07/26 01:48:44;;;;;;;17.80;14.00;;;;;;;;;;6323834;22;20026;-85
2021/07/26 01:51:14;;;;;;;24.63;14.10;;;;;;;;;;6321521;22;20363;-85
2021/07/26 01:53:43;;;;;;;17.00;13.45;;;;;;;;;;6320181;22;20084;-85
2021/07/26 01:56:13;;;;;;;20.15;13.65;;;;;;;;;;6346594;22;20029;-85
2021/07/26 01:58:40;;;;;;;17.48;13.00;;;;;;;;;;6319578;22;20030;-85
2021/07/26 02:01:07;;;;;;;15.27;12.15;;;;;;;;;;6346690;22;20027;-85
2021/07/26 02:03:35;;;;;;;15.60;13.13;;;;;;;;;;6318534;22;20365;-85
2021/07/26 02:06:05;;;;;;;21.20;13.07;;;;;;;;;;6319400;22;20308;-85
2021/07/26 02:08:34;;;;;;;19.55;13.30;;;;;;;;;;6320931;22;20052;-85
2021/07/26 02:11:01;;;;;;;15.15;11.25;;;;;;;;;;6348042;22;20019;-85
2021/07/26 02:13:29;;;;;;;15.82;12.40;;;;;;;;;;6347340;22;20030;-85
2021/07/26 02:15:58;;;;;;;19.70;13.10;;;;;;;;;;6347396;22;20071;-85
2021/07/26 02:18:25;;;;;;;19.23;12.55;;;;;;;;;;6318712;22;20027;-85
2021/07/26 02:20:55;;;;;;;17.17;12.95;;;;;;;;;;6320475;22;20027;-85
2021/07/26 02:23:21;;;;;;;15.70;12.55;;;;;;;;;;6320395;22;20362;-85
2021/07/26 02:25:48;;;;;;;25.13;12.85;;;;;;;;;;6321835;22;20023;-85
2021/07/26 02:28:14;;;;;;;15.07;12.18;;;;;;;;;;6347726;22;20102;-85
2021/07/26 02:30:41;;;;;;;18.73;12.65;;;;;;;;;;6316621;22;20019;-85
2021/07/26 02:33:08;;;;;;;18.73;12.90;;;;;;;;;;6316287;22;20071;-85
2021/07/26 02:35:35;;;;;;;15.90;12.05;;;;;;;;;;6315532;22;20370;-85
2021/07/26 02:38:01;;;;;;;15.15;11.57;;;;;;;;;;6315282;22;20127;-85
2021/07/26 02:40:35;;;;;;;18.73;12.75;;;;;;;;;;6323778;22;20031;-85
2021/07/26 02:43:02;;;;;;;16.75;11.73;;;;;;;;;;6329013;22;20047;-85
2021/07/26 02:45:29;;;;;;;14.93;11.85;;;;;;;;;;6326764;22;20029;-85
2021/07/26 02:47:56;;;;;;;16.90;11.70;;;;;;;;;;6314855;22;20462;-85
2021/07/26 02:50:26;;;;;;;18.88;12.70;;;;;;;;;;6312065;22;20019;-86
2021/07/26 02:52:53;;;;;;;17.25;13.20;;;;;;;;;;6314283;22;20158;-85
2021/07/26 02:55:27;;;;;;;24.08;12.85;;;;;;;;;;6313788;22;20345;-85
2021/07/26 02:57:56;;;;;;;14.63;11.27;;;;;;;;;;6313717;22;20030;-85
2021/07/26 03:00:23;;;;;;;16.05;11.55;;;;;;;;;;6314375;22;20053;-85
2021/07/26 03:02:51;;;;;;;15.63;10.90;;;;;;;;;;6315059;22;20027;-85
2021/07/26 03:05:18;;;;;;;15.35;11.15;;;;;;;;;;6316113;22;20030;-85
2021/07/26 03:07:44;;;;;;;15.88;10.85;;;;;;;;;;6323691;22;20071;-87
2021/07/26 03:10:11;;;;;;;16.55;12.02;;;;;;;;;;6324757;22;20007;-84
2021/07/26 03:12:42;;;;;;;16.52;12.75;;;;;;;;;;6321951;22;20023;-85
2021/07/26 03:15:10;;;;;;;15.63;11.82;;;;;;;;;;6323494;22;20011;-84
2021/07/26 03:17:37;;;;;;;16.13;11.95;;;;;;;;;;6330032;22;20019;-83
2021/07/26 03:20:10;;;;;;;19.13;13.63;;;;;;;;;;6330375;22;20038;-84
2021/07/26 03:22:49;;;;;;;16.05;11.73;;;;;;;;;;6330088;22;20066;-84
2021/07/26 03:25:16;;;;;;;19.58;12.93;;;;;;;;;;6328606;22;20031;-85
2021/07/26 03:27:42;;;;;;;18.08;12.70;;;;;;;;;;6319101;22;20023;-85
2021/07/26 03:30:09;;;;;;;22.05;12.15;;;;;;;;;;6318693;22;20031;-85
2021/07/26 03:32:36;;;;;;;14.73;11.25;;;;;;;;;;6321105;22;20083;-85
2021/07/26 03:35:06;;;;;;;20.17;12.30;;;;;;;;;;6347062;22;20018;-85
2021/07/26 03:37:33;;;;;;;14.27;10.85;;;;;;;;;;6320047;22;20069;-85
2021/07/26 03:40:00;;;;;;;19.20;11.15;;;;;;;;;;6334622;22;20015;-85
2021/07/26 03:42:29;;;;;;;16.30;11.55;;;;;;;;;;6336828;22;20010;-86
2021/07/26 03:44:59;;;;;;;21.85;11.65;;;;;;;;;;6335352;22;20015;-86
2021/07/26 03:47:27;;;;;;;19.95;11.70;;;;;;;;;;6300058;22;20023;-86
2021/07/26 03:50:03;;;;;;;19.48;12.30;;;;;;;;;;6321933;22;20062;-85
2021/07/26 03:52:40;;;;;;;15.02;11.10;;;;;;;;;;6321238;22;20061;-85
2021/07/26 03:55:08;;;;;;;14.98;11.75;;;;;;;;;;6321503;22;20027;-85
2021/07/26 03:57:36;;;;;;;15.93;11.75;;;;;;;;;;6347594;22;20342;-85
2021/07/26 04:00:04;;;;;;;16.13;11.13;;;;;;;;;;6320471;22;20118;-84
2021/07/26 04:02:31;;;;;;;17.08;12.63;;;;;;;;;;6329613;22;20019;-84
2021/07/26 04:04:58;;;;;;;14.82;10.77;;;;;;;;;;6334877;22;20122;-86
2021/07/26 04:07:26;;;;;;;15.65;11.15;;;;;;;;;;6322554;22;20046;-84
2021/07/26 04:10:00;;;;;;;15.20;11.52;;;;;;;;;;6319789;22;20019;-85
2021/07/26 04:12:28;;;;;;;17.70;12.55;;;;;;;;;;6326747;22;20023;-85
2021/07/26 04:14:55;;;;;;;15.57;11.35;;;;;;;;;;6354539;22;20018;-85
2021/07/26 04:17:25;;;;;;;14.85;11.43;;;;;;;;;;6346373;22;20063;-85
2021/07/26 04:19:55;;;;;;;14.73;11.35;;;;;;;;;;6343994;22;20018;-85
2021/07/26 04:22:22;;;;;;;14.57;11.18;;;;;;;;;;6345786;22;20293;-85
2021/07/26 04:24:50;;;;;;;15.23;11.38;;;;;;;;;;6348103;22;20132;-85
2021/07/26 04:27:20;;;;;;;15.95;11.18;;;;;;;;;;6318124;22;20018;-86
2021/07/26 04:29:49;;;;;;;17.10;11.73;;;;;;;;;;6317856;22;20045;-85
2021/07/26 04:32:20;;;;;;;16.75;11.30;;;;;;;;;;6315855;22;20027;-85
2021/07/26 04:34:47;;;;;;;13.60;10.68;;;;;;;;;;6316463;22;20022;-85
2021/07/26 04:37:20;;;;;;;16.38;11.55;;;;;;;;;;6315746;22;20105;-85
2021/07/26 04:39:50;;;;;;;;;;;;;;;;;;6319827;22;20080;-85
2021/07/26 04:42:16;;;;;;;16.73;11.20;;;;;;;;;;6318380;22;19918;-84
2021/07/26 04:44:43;;;;;;;16.88;11.43;;;;;;;;;;6344730;22;20022;-85
2021/07/26 04:47:10;;;;;;;19.02;10.55;;;;;;;;;;6317243;22;20044;-85
2021/07/26 04:49:43;;;;;;;18.25;10.88;;;;;;;;;;6316207;22;20038;-85
2021/07/26 04:52:09;;;;;;;14.68;10.65;;;;;;;;;;6342735;22;20103;-85
2021/07/26 04:54:37;;;;;;;19.17;10.00;;;;;;;;;;6316060;22;20033;-85
2021/07/26 04:57:04;;;;;;;14.23;10.77;;;;;;;;;;6315328;22;20026;-86
2021/07/26 04:59:31;;;;;;;15.85;9.77;;;;;;;;;;6344245;22;20037;-85
2021/07/26 05:01:58;;;;;;;14.15;9.73;;;;;;;;;;6316280;22;20027;-85
2021/07/26 05:04:25;;;;;;;13.30;9.13;;;;;;;;;;6315460;22;20054;-85
2021/07/26 05:07:00;;;;;;;12.50;9.50;;;;;;;;;;6344534;22;20011;-85
2021/07/26 05:09:28;;;;;;;12.73;9.27;;;;;;;;;;6344318;22;20038;-86
2021/07/26 05:12:00;;;;;;;11.20;8.00;;;;;;;;;;6314635;22;20018;-85
2021/07/26 05:14:27;;;;;;;12.43;8.85;;;;;;;;;;6341265;22;20351;-85
2021/07/26 05:16:54;;;;;;;13.43;8.38;;;;;;;;;;6314978;22;20278;-85
2021/07/26 05:19:24;;;;;;;12.88;8.85;;;;;;;;;;6346549;22;20103;-85
2021/07/26 05:21:51;;;;;;;12.57;8.32;;;;;;;;;;6321672;22;20023;-85
2021/07/26 05:24:19;;;;;;;12.98;7.88;;;;;;;;;;6320688;22;20269;-85
2021/07/26 05:26:46;;;;;;;11.23;7.53;;;;;;;;;;6322183;22;20054;-85
2021/07/26 05:29:13;;;;;;;11.15;7.80;;;;;;;;;;6345487;22;20040;-85
2021/07/26 05:31:40;;;;;;;10.55;6.80;;;;;;;;;;6313025;22;20092;-85
2021/07/26 05:34:07;;;;;;;12.70;8.00;;;;;;;;;;6312438;22;20612;-85
2021/07/26 05:36:47;;;;;;;13.63;7.47;;;;;;;;;;6312579;22;20096;-85
2021/07/26 05:39:13;;;;;;;14.13;7.50;;;;;;;;;;6311884;22;20075;-86
2021/07/26 05:41:47;;;;;;;13.85;6.88;;;;;;;;;;6309262;22;20023;-85
2021/07/26 05:44:16;;;;;;;13.55;7.03;;;;;;;;;;6311415;22;20258;-85
2021/07/26 05:46:43;;;;;;;11.73;7.03;;;;;;;;;;6311129;22;20045;-85
2021/07/26 05:49:10;;;;;;;12.82;6.53;;;;;;;;;;6307781;22;20033;-86
2021/07/26 05:51:40;;;;;;;11.43;6.85;;;;;;;;;;6308211;22;20028;-85
2021/07/26 05:54:06;;;;;;;10.20;6.15;;;;;;;;;;6310098;22;20027;-86
2021/07/26 05:56:40;;;;;;;15.27;7.25;;;;;;;;;;6308974;22;20015;-85
2021/07/26 05:59:10;;;;;;;10.13;5.53;;;;;;;;;;6308031;22;20031;-84
2021/07/26 06:01:49;;;;;;;8.93;6.55;;;;;;;;;;6311013;22;20289;-84
2021/07/26 06:04:20;;;;;;;13.20;6.40;;;;;;;;;;6311080;22;20023;-86
2021/07/26 06:06:49;;;;;;;14.23;6.28;;;;;;;;;;6319204;22;20027;-85
2021/07/26 06:09:16;;;;;;;13.82;6.88;;;;;;;;;;6323505;22;20015;-85
2021/07/26 06:11:51;;;;;;;16.55;6.72;;;;;;;;;;6324861;22;20011;-85
2021/07/26 06:14:21;;;;;;;10.35;7.07;;;;;;;;;;6325953;22;20014;-86
2021/07/26 06:16:52;;;;;;;14.90;6.47;;;;;;;;;;6320374;22;20050;-85
2021/07/26 06:19:21;;;;;;;8.63;5.50;;;;;;;;;;6311717;22;20139;-85
2021/07/26 06:21:48;;;;;;;8.60;5.90;;;;;;;;;;6312658;22;20027;-85
2021/07/26 06:24:15;;;;;;;10.98;5.78;;;;;;;;;;6312811;22;20463;-85
2021/07/26 06:26:43;;;;;;;8.93;5.95;;;;;;;;;;6309509;22;20015;-85
2021/07/26 06:29:10;;;;;;;12.65;6.00;;;;;;;;;;6308198;22;20321;-85
2021/07/26 06:31:37;;;;;;;9.63;6.13;;;;;;;;;;6306903;22;20055;-85
2021/07/26 06:34:07;;;;;;;13.15;5.28;;;;;;;;;;6306262;22;20047;-85
2021/07/26 06:36:35;;;;;;;8.10;5.28;;;;;;;;;;6307240;22;20328;-85
2021/07/26 06:39:02;;;;;;;8.30;5.50;;;;;;;;;;6307343;22;20027;-84
2021/07/26 06:41:30;;;;;;;8.93;5.90;;;;;;;;;;6310438;22;20027;-85
2021/07/26 06:43:57;;;;;;;12.90;5.90;;;;;;;;;;6310694;22;20057;-86
2021/07/26 06:46:23;;;;;;;7.10;5.20;;;;;;;;;;6322219;22;20063;-86
2021/07/26 06:48:51;;;;;;;9.63;5.50;;;;;;;;;;6325029;22;20067;-86
2021/07/26 06:51:26;;;;;;;11.95;5.95;;;;;;;;;;6308751;22;20022;-86
2021/07/26 06:53:56;;;;;;;9.80;5.93;;;;;;;;;;6307941;22;20513;-85
2021/07/26 06:56:37;;;;;;;9.45;4.95;;;;;;;;;;6320774;22;20074;-85
2021/07/26 06:59:09;;;;;;;8.23;5.20;;;;;;;;;;6316236;22;20019;-85
2021/07/26 07:01:38;;;;;;;7.88;5.22;;;;;;;;;;6308019;22;20427;-85
2021/07/26 07:04:07;;;;;;;12.90;5.78;;;;;;;;;;6306350;22;20023;-86
2021/07/26 07:06:38;;;;;;;9.38;5.68;;;;;;;;;;6308914;22;20027;-85
2021/07/26 07:09:18;;;;;;;13.00;5.65;;;;;;;;;;6307754;22;20015;-86
2021/07/26 07:11:59;;;;;;;11.55;5.47;;;;;;;;;;6307064;22;20011;-86
2021/07/26 07:14:31;;;;;;;9.90;5.45;;;;;;;;;;6308211;22;20031;-85
2021/07/26 07:16:58;;;;;;;13.38;5.50;;;;;;;;;;6305056;22;20129;-85
2021/07/26 07:19:34;;;;;;;14.43;5.53;;;;;;;;;;6304721;22;20135;-85
2021/07/26 07:22:01;;;;;;;10.50;4.72;;;;;;;;;;6304578;22;20081;-86
2021/07/26 07:24:28;;;;;;;12.48;4.85;;;;;;;;;;6300756;22;20116;-85
2021/07/26 07:26:59;;;;;;;15.40;6.53;;;;;;;;;;6302154;22;20027;-84
2021/07/26 07:29:32;;;;;;;10.88;5.20;;;;;;;;;;6304902;22;20420;-86
2021/07/26 07:32:02;;;;;;;10.60;4.88;;;;;;;;;;6331867;22;20185;-86
2021/07/26 07:34:31;;;;;;;13.75;5.78;;;;;;;;;;6308117;22;20018;-86
2021/07/26 07:37:00;;;;;;;7.43;4.15;;;;;;;;;;6306037;22;20053;-85
2021/07/26 07:39:28;;;;;;;8.90;4.25;;;;;;;;;;6305450;22;20199;-85
2021/07/26 07:41:56;;;;;;;9.55;4.03;;;;;;;;;;6337434;22;20033;-85
2021/07/26 07:44:32;;;;;;;8.02;4.10;;;;;;;;;;6310774;22;20177;-88
2021/07/26 07:47:02;;;;;;;11.63;5.20;;;;;;;;;;6335555;22;20358;-84
2021/07/26 07:49:33;;;;;;;6.88;4.10;;;;;;;;;;6308291;22;20160;-85
2021/07/26 07:52:11;;;;;;;5.65;4.10;;;;;;;;;;6309949;22;20189;-85
2021/07/26 07:54:38;;;;;;;6.75;3.60;;;;;;;;;;6309042;22;20097;-86
2021/07/26 07:57:10;;;;;;;8.05;3.67;;;;;;;;;;6309089;22;20201;-86
2021/07/26 07:59:40;;;;;;;6.78;3.55;;;;;;;;;;6308357;22;20030;-85
2021/07/26 08:02:12;;;;;;;9.85;3.63;;;;;;;;;;6336860;22;20234;-87
2021/07/26 08:04:53;;;;;;;6.78;3.40;;;;;;;;;;6313597;22;20033;-85
2021/07/26 08:07:34;;;;;;;7.18;3.50;;;;;;;;;;6308736;22;20097;-87
2021/07/26 08:10:16;;;;;;;5.88;3.95;;;;;;;;;;6311595;22;20023;-86
2021/07/26 08:12:56;;;;;;;6.18;3.10;;;;;;;;;;6311006;22;20030;-85
2021/07/26 08:15:37;;;;;;;5.40;3.47;;;;;;;;;;6316723;22;20067;-86
2021/07/26 08:18:06;;;;;;;10.10;3.28;;;;;;;;;;6311475;22;20030;-87
2021/07/26 08:20:53;;;;;;;6.57;3.35;;;;;;;;;;6292501;22;20023;-86
2021/07/26 08:23:20;;;;;;;10.40;3.80;;;;;;;;;;6312387;22;20022;-86
2021/07/26 08:26:01;;;;;;;8.48;3.58;;;;;;;;;;6310616;22;20431;-86
2021/07/26 08:28:41;;;;;;;4.70;3.08;;;;;;;;;;6312363;22;20478;-85
2021/07/26 08:31:24;;;;;;;7.30;3.40;;;;;;;;;;6330584;22;20551;-86
2021/07/26 08:33:53;;;;;;;8.38;3.63;;;;;;;;;;6342398;22;20018;-86
2021/07/26 08:36:19;;;;;;;8.10;3.17;;;;;;;;;;6318933;22;20084;-86
2021/07/26 08:38:46;;;;;;;6.05;2.95;;;;;;;;;;6343715;22;20031;-85
2021/07/26 08:41:22;;;;;;;6.57;3.50;;;;;;;;;;6344717;22;20212;-85
2021/07/26 08:43:49;;;;;;;3.42;2.88;;;;;;;;;;6314632;22;20056;-85
2021/07/26 08:46:16;;;;;;;5.07;3.15;;;;;;;;;;6319041;22;20022;-86
2021/07/26 08:48:44;;;;;;;6.95;2.97;;;;;;;;;;6316818;22;20091;-85
2021/07/26 08:51:11;;;;;;;6.53;3.17;;;;;;;;;;6343835;22;20125;-86
2021/07/26 08:53:40;;;;;;;5.18;2.80;;;;;;;;;;6342516;22;20031;-86
2021/07/26 08:56:13;;;;;;;6.75;2.72;;;;;;;;;;6316829;22;20027;-86
2021/07/26 08:58:42;;;;;;;7.22;2.92;;;;;;;;;;6314082;22;20093;-86
2021/07/26 09:01:13;;;;;;;8.07;3.08;;;;;;;;;;6315538;22;20050;-87
2021/07/26 09:03:42;;;;;;;11.32;2.90;;;;;;;;;;6316133;22;20027;-85
2021/07/26 09:06:09;;;;;;;4.60;2.60;;;;;;;;;;6318471;22;20057;-85
2021/07/26 09:08:38;;;;;;;4.82;2.50;;;;;;;;;;6343651;22;20034;-85
2021/07/26 09:11:09;;;;;;;6.43;3.17;;;;;;;;;;6314759;22;20075;-86
2021/07/26 09:13:38;;;;;;;4.28;2.45;;;;;;;;;;6343110;22;20408;-86
2021/07/26 09:16:14;;;;;;;3.20;2.10;;;;;;;;;;6316458;22;20023;-86
2021/07/26 09:18:41;;;;;;;5.85;2.40;;;;;;;;;;6346427;22;20495;-85
2021/07/26 09:21:11;;;;;;;5.13;1.98;;;;;;;;;;6347422;22;20031;-85
2021/07/26 09:23:58;;;;;;;2.60;2.08;;;;;;;;;;6318754;22;20026;-84
2021/07/26 09:26:25;;;;;;;2.22;2.03;;;;;;;;;;6318466;22;20023;-86
2021/07/26 09:28:59;;;;;;;4.22;2.38;;;;;;;;;;6323201;22;20308;-87
2021/07/26 09:31:28;;;;;;;4.78;2.40;;;;;;;;;;6325911;22;20027;-86
2021/07/26 09:34:20;;;;;;;3.63;2.38;;;;;;;;;;6327364;22;20034;-85
2021/07/26 09:36:49;;;;;;;7.65;2.33;;;;;;;;;;6320942;22;20031;-86
2021/07/26 09:39:24;;;;;;;4.22;2.10;;;;;;;;;;6324549;22;20015;-86
2021/07/26 09:41:53;;;;;;;3.95;2.58;;;;;;;;;;6323476;22;20235;-86
2021/07/26 09:44:23;;;;;;;5.22;2.30;;;;;;;;;;6311736;22;20026;-86
2021/07/26 09:46:53;;;;;;;4.05;2.33;;;;;;;;;;6310304;22;20057;-85
2021/07/26 09:49:21;;;;;;;5.45;2.70;;;;;;;;;;6317616;22;20046;-84
2021/07/26 09:52:09;;;;;;;5.78;2.10;;;;;;;;;;6322757;22;20034;-85
2021/07/26 09:54:52;;;;;;;7.00;2.63;;;;;;;;;;6325046;22;20166;-86
2021/07/26 09:57:20;;;;;;;7.38;2.42;;;;;;;;;;6321700;22;20029;-85
2021/07/26 09:59:48;;;;;;;3.00;2.38;;;;;;;;;;6315916;22;20031;-86
2021/07/26 10:02:16;;;;;;;3.50;1.95;;;;;;;;;;6310484;22;20044;-86
2021/07/26 10:04:47;;;;;;;2.42;2.00;;;;;;;;;;6312375;22;20020;-85
2021/07/26 10:07:15;;;;;;;5.57;2.25;;;;;;;;;;6313560;22;20024;-87
2021/07/26 10:09:45;;;;;;;7.60;2.10;;;;;;;;;;6309573;22;20027;-86
2021/07/26 10:12:17;;;;;;;3.72;2.25;;;;;;;;;;6312075;22;20041;-86
2021/07/26 10:14:46;;;;;;;7.72;2.83;;;;;;;;;;6322098;22;20015;-85
2021/07/26 10:17:16;;;;;;;3.42;2.00;;;;;;;;;;6320105;22;20019;-85
2021/07/26 10:19:43;;;;;;;3.90;1.90;;;;;;;;;;6317911;22;20027;-86
2021/07/26 10:22:20;;;;;;;3.08;2.15;;;;;;;;;;6308974;22;20055;-85
2021/07/26 10:24:52;;;;;;;;;;;;;;;;;;6310935;22;20031;-86
2021/07/26 10:27:39;;;;;;;3.53;2.20;;;;;;;;;;6309382;22;19966;-85
2021/07/26 10:30:06;;;;;;;2.50;2.00;;;;;;;;;;6308264;22;20054;-86
2021/07/26 10:32:34;;;;;;;3.78;2.15;;;;;;;;;;6315068;22;20275;-86
2021/07/26 10:35:02;;;;;;;2.70;1.83;;;;;;;;;;6310338;22;20011;-85
2021/07/26 10:37:45;;;;;;;2.47;1.63;;;;;;;;;;6310622;22;20091;-85
2021/07/26 10:40:27;;;;;;;6.78;2.10;;;;;;;;;;6312695;22;20192;-84
2021/07/26 10:42:54;;;;;;;4.88;2.45;;;;;;;;;;6315248;22;20026;-86
2021/07/26 10:45:33;;;;;;;3.08;2.05;;;;;;;;;;6316278;22;20038;-84
2021/07/26 10:48:19;;;;;;;3.63;2.20;;;;;;;;;;6344160;22;20038;-85
2021/07/26 10:50:50;;;;;;;5.85;2.33;;;;;;;;;;6312225;22;20019;-85
2021/07/26 10:53:32;;;;;;;3.67;2.15;;;;;;;;;;6310503;22;20022;-85
2021/07/26 10:56:06;;;;;;;3.35;2.10;;;;;;;;;;6315883;22;20027;-85
2021/07/26 10:58:39;;;;;;;3.22;2.08;;;;;;;;;;6313054;22;20018;-84
2021/07/26 11:01:26;;;;;;;3.67;2.10;;;;;;;;;;6339959;22;20052;-85
2021/07/26 11:03:53;;;;;;;3.25;2.17;;;;;;;;;;6319523;22;20015;-85
2021/07/26 11:09:21;;;;;;;7.05;2.30;;;;;;;;;;6351345;22;20062;-85
2021/07/26 11:11:55;;;;;;;4.32;2.70;;;;;;;;;;6346870;22;20029;-86
2021/07/26 11:14:21;;;;;;;3.38;2.47;;;;;;;;;;6340314;22;20130;-86
2021/07/26 11:17:00;;;;;;;3.92;1.85;;;;;;;;;;6315793;22;20520;-86
2021/07/26 11:19:31;;;;;;;2.92;1.98;;;;;;;;;;6315302;22;20346;-85
2021/07/26 11:21:58;;;;;;;2.90;1.85;;;;;;;;;;6315769;22;20061;-86
2021/07/26 11:24:46;;;;;;;3.13;1.77;;;;;;;;;;6346839;22;20064;-84
2021/07/26 11:27:17;;;;;;;3.88;2.10;;;;;;;;;;6321717;22;20011;-85
2021/07/26 11:29:44;;;;;;;5.57;1.45;;;;;;;;;;6323901;22;20047;-85
2021/07/26 11:32:17;;;;;;;7.00;2.17;;;;;;;;;;6347338;22;20018;-87
2021/07/26 11:34:46;;;;;;;2.20;1.60;;;;;;;;;;6320102;22;20332;-86
2021/07/26 11:37:14;;;;;;;4.13;1.63;;;;;;;;;;6350699;22;20023;-85
2021/07/26 11:43:09;;;;;;;5.20;2.60;;;;;;;;;;6340713;22;20014;-85
2021/07/26 11:45:39;;;;;;;3.20;1.98;;;;;;;;;;6317414;22;20351;-85
2021/07/26 11:48:07;;;;;;;2.92;2.00;;;;;;;;;;6343289;22;20062;-85
2021/07/26 11:50:43;;;;;;;3.08;2.15;;;;;;;;;;6316173;22;20022;-86
2021/07/26 11:53:10;;;;;;;2.13;1.92;;;;;;;;;;6315249;22;20046;-84
2021/07/26 11:55:37;;;;;;;2.67;2.00;;;;;;;;;;6341486;22;20340;-85
2021/07/26 11:58:13;;;;;;;4.97;2.33;;;;;;;;;;6343710;22;20030;-86
2021/07/26 12:00:42;;;;;;;2.22;1.92;;;;;;;;;;6315841;22;20223;-85
2021/07/26 12:03:09;;;;;;;2.28;1.80;;;;;;;;;;6341761;22;20193;-85
2021/07/26 12:05:36;;;;;;;4.03;1.77;;;;;;;;;;6315533;22;20015;-85
2021/07/26 12:08:20;;;;;;;1.73;1.60;;;;;;;;;;6314194;22;20010;-86
2021/07/26 12:10:46;;;;;;;6.00;1.90;;;;;;;;;;6350357;22;20031;-87
2021/07/26 12:13:17;;;;;;;5.13;2.47;;;;;;;;;;6352969;22;20060;-86
2021/07/26 12:15:48;;;;;;;3.22;2.13;;;;;;;;;;6325630;22;20037;-86
2021/07/26 12:18:35;;;;;;;7.63;2.90;;;;;;;;;;6321655;22;20239;-85
2021/07/26 12:21:05;;;;;;;3.50;2.28;;;;;;;;;;6323347;22;20037;-86
2021/07/26 12:23:33;;;;;;;4.57;2.08;;;;;;;;;;6353078;22;20038;-85
2021/07/26 12:26:07;;;;;;;2.58;1.80;;;;;;;;;;6318039;22;20027;-86
2021/07/26 12:28:41;;;;;;;5.38;2.38;;;;;;;;;;6317751;22;20023;-86
2021/07/26 12:31:23;;;;;;;3.65;2.45;;;;;;;;;;6315866;22;20027;-86
2021/07/26 12:34:13;;;;;;;4.20;2.00;;;;;;;;;;6315062;22;20076;-85
2021/07/26 12:36:41;;;;;;;3.05;1.67;;;;;;;;;;6343115;22;20026;-86
2021/07/26 12:39:08;;;;;;;3.33;2.20;;;;;;;;;;6320335;22;20015;-86
2021/07/26 12:41:36;;;;;;;3.97;2.08;;;;;;;;;;6317709;22;20030;-86
2021/07/26 12:44:20;;;;;;;2.22;1.88;;;;;;;;;;6316089;22;20101;-86
2021/07/26 12:46:48;;;;;;;2.95;1.80;;;;;;;;;;6318495;22;20030;-86
2021/07/26 12:49:17;;;;;;;2.33;2.13;;;;;;;;;;6317073;22;20018;-86
2021/07/26 12:51:52;;;;;;;4.55;1.98;;;;;;;;;;6325203;22;20010;-85
2021/07/26 12:54:19;;;;;;;4.18;1.80;;;;;;;;;;6328796;22;20019;-85
2021/07/26 12:56:46;;;;;;;4.45;2.25;;;;;;;;;;6329467;22;20033;-86
2021/07/26 12:59:13;;;;;;;3.30;2.08;;;;;;;;;;6329797;22;20037;-87
2021/07/26 13:01:50;;;;;;;3.70;2.20;;;;;;;;;;6357104;22;20085;-86
2021/07/26 13:04:22;;;;;;;4.32;2.30;;;;;;;;;;6322961;22;20068;-88
2021/07/26 13:06:52;;;;;;;2.90;2.00;;;;;;;;;;6350131;22;20095;-86
2021/07/26 13:09:19;;;;;;;5.25;2.50;;;;;;;;;;6345139;22;20131;-86
2021/07/26 13:11:46;;;;;;;4.07;2.40;;;;;;;;;;6320033;22;20513;-87
2021/07/26 13:14:13;;;;;;;2.75;1.90;;;;;;;;;;6317014;22;20065;-87
2021/07/26 13:16:40;;;;;;;4.43;2.08;;;;;;;;;;6317084;22;20034;-87
2021/07/26 13:19:07;;;;;;;4.05;2.22;;;;;;;;;;6343870;22;20027;-87
2021/07/26 13:21:37;;;;;;;3.88;2.45;;;;;;;;;;6344364;22;20050;-87
2021/07/26 13:24:06;;;;;;;3.05;2.10;;;;;;;;;;6347572;22;20033;-86
2021/07/26 13:26:41;;;;;;;3.55;2.15;;;;;;;;;;6349258;22;20172;-87
2021/07/26 13:29:08;;;;;;;3.45;2.25;;;;;;;;;;6340482;22;20023;-86
2021/07/26 13:31:55;;;;;;;4.68;2.10;;;;;;;;;;6310814;22;20103;-86
2021/07/26 13:34:22;;;;;;;2.67;1.92;;;;;;;;;;6334942;22;20022;-87
2021/07/26 13:36:49;;;;;;;3.30;2.08;;;;;;;;;;6336163;22;20193;-85
2021/07/26 13:39:19;;;;;;;4.30;2.40;;;;;;;;;;6309492;22;20398;-85
2021/07/26 13:41:46;;;;;;;3.38;2.10;;;;;;;;;;6344863;22;20246;-86
2021/07/26 13:44:13;;;;;;;2.30;2.00;;;;;;;;;;6348713;22;20027;-86
2021/07/26 13:46:44;;;;;;;4.55;2.15;;;;;;;;;;6352082;22;20339;-86
2021/07/26 13:49:11;;;;;;;5.13;2.33;;;;;;;;;;6316841;22;20058;-86
2021/07/26 13:51:38;;;;;;;4.80;2.58;;;;;;;;;;6345584;22;20026;-87
2021/07/26 13:54:05;;;;;;;3.28;2.13;;;;;;;;;;6349289;22;20059;-86
2021/07/26 13:56:33;;;;;;;3.78;2.33;;;;;;;;;;6317947;22;20202;-86
2021/07/26 13:59:02;;;;;;;3.88;2.10;;;;;;;;;;6334914;22;20372;-86
2021/07/26 14:01:30;;;;;;;3.55;2.20;;;;;;;;;;6306405;22;20030;-85
2021/07/26 14:04:00;;;;;;;5.25;2.58;;;;;;;;;;6305977;22;20053;-85
2021/07/26 14:06:27;;;;;;;5.22;2.65;;;;;;;;;;6334302;22;20084;-85
2021/07/26 14:08:54;;;;;;;4.75;2.38;;;;;;;;;;6334870;22;20019;-85
2021/07/26 14:11:21;;;;;;;5.40;2.88;;;;;;;;;;6310379;22;20115;-86
2021/07/26 14:13:47;;;;;;;7.82;2.45;;;;;;;;;;6307375;22;20148;-85
2021/07/26 14:16:14;;;;;;;3.17;2.22;;;;;;;;;;6335465;22;20033;-85
2021/07/26 14:18:41;;;;;;;6.88;2.55;;;;;;;;;;6335760;22;20030;-86
2021/07/26 14:21:11;;;;;;;6.53;3.08;;;;;;;;;;6337082;22;20259;-86
2021/07/26 14:23:40;;;;;;;5.22;2.47;;;;;;;;;;6311527;22;20587;-86
2021/07/26 14:26:07;;;;;;;5.38;2.63;;;;;;;;;;6336896;22;20080;-86
2021/07/26 14:28:34;;;;;;;5.68;2.38;;;;;;;;;;6330551;22;20057;-85
2021/07/26 14:31:01;;;;;;;5.00;2.65;;;;;;;;;;6299300;22;20208;-85
2021/07/26 14:33:28;;;;;;;3.85;2.35;;;;;;;;;;6301754;22;20053;-86
2021/07/26 14:35:57;;;;;;;5.63;2.60;;;;;;;;;;6302317;22;20026;-85
2021/07/26 14:38:28;;;;;;;6.10;2.38;;;;;;;;;;6300909;22;20071;-85
2021/07/26 14:40:55;;;;;;;5.35;2.28;;;;;;;;;;6297210;22;20122;-86
2021/07/26 14:43:22;;;;;;;2.53;1.85;;;;;;;;;;6298032;22;20030;-86
2021/07/26 14:45:49;;;;;;;4.65;2.03;;;;;;;;;;6299347;22;20019;-86
2021/07/26 14:48:16;;;;;;;4.47;1.73;;;;;;;;;;6300321;22;20057;-86
2021/07/26 14:50:43;;;;;;;3.55;1.60;;;;;;;;;;6299767;22;20027;-86
2021/07/26 14:53:10;;;;;;;2.88;2.30;;;;;;;;;;6315776;22;20037;-86
2021/07/26 14:55:46;;;;;;;3.22;2.10;;;;;;;;;;6310351;22;20304;-86
2021/07/26 14:58:12;;;;;;;2.60;1.88;;;;;;;;;;6302883;22;20084;-86
2021/07/26 15:00:49;;;;;;;2.90;2.25;;;;;;;;;;6307164;22;20035;-85